createdAt,value
2022-10-11T00:01:52.237Z,9.32
2022-10-11T00:04:25.715Z,9.02
2022-10-11T00:06:59.241Z,9.38
2022-10-11T00:09:32.915Z,9.80
2022-10-11T00:12:08.241Z,8.55
2022-10-11T00:14:41.774Z,10.18
2022-10-11T00:17:15.359Z,9.70
2022-10-11T00:19:48.827Z,9.38
2022-10-11T00:22:22.689Z,9.25
2022-10-11T00:24:56.225Z,9.77
2022-10-11T00:27:31.229Z,10.65
2022-10-11T00:30:06.986Z,9.95
2022-10-11T00:32:40.742Z,8.98
2022-10-11T00:37:47.440Z,9.45
2022-10-11T00:40:22.409Z,10.80
2022-10-11T00:42:57.293Z,10.57
2022-10-11T00:46:01.992Z,9.65
2022-10-11T00:48:41.310Z,9.13
2022-10-11T00:51:21.686Z,10.27
2022-10-11T00:53:55.383Z,10.32
2022-10-11T00:56:34.055Z,10.32
2022-10-11T00:59:14.339Z,9.80
2022-10-11T01:01:47.917Z,10.05
2022-10-11T01:04:21.547Z,10.73
2022-10-11T01:06:56.139Z,10.38
2022-10-11T01:09:31.161Z,10.43
2022-10-11T01:12:08.809Z,10.80
2022-10-11T01:15:05.483Z,10.80
2022-10-11T01:17:47.923Z,10.63
2022-10-11T01:20:32.878Z,10.90
2022-10-11T01:23:38.478Z,10.93
2022-10-11T01:26:58.092Z,11.77
2022-10-11T01:29:46.420Z,11.13
2022-10-11T01:32:28.564Z,11.00
2022-10-11T01:35:07.991Z,11.57
2022-10-11T01:37:45.495Z,11.65
2022-10-11T01:40:23.793Z,10.50
2022-10-11T01:42:58.816Z,11.23
2022-10-11T01:45:34.127Z,10.98
2022-10-11T01:48:11.469Z,10.93
2022-10-11T01:50:46.783Z,12.20
2022-10-11T01:53:51.754Z,10.80
2022-10-11T01:59:42.849Z,11.38
2022-10-11T02:02:31.677Z,11.45
2022-10-11T02:05:10.891Z,11.98
2022-10-11T02:07:50.852Z,12.27
2022-10-11T02:10:33.508Z,11.68
2022-10-11T02:13:10.535Z,10.90
2022-10-11T02:15:49.894Z,12.88
2022-10-11T02:18:27.976Z,11.95
2022-10-11T02:21:03.602Z,12.00
2022-10-11T02:23:42.080Z,12.70
2022-10-11T02:26:16.541Z,11.23
2022-10-11T02:28:54.530Z,11.63
2022-10-11T02:31:30.827Z,12.20
2022-10-11T02:34:12.604Z,12.02
2022-10-11T02:36:56.641Z,11.75
2022-10-11T02:39:37.010Z,12.52
2022-10-11T02:42:16.192Z,12.23
2022-10-11T02:45:00.927Z,12.35
2022-10-11T02:47:36.492Z,12.80
2022-10-11T02:50:11.794Z,12.25
2022-10-11T02:52:45.433Z,12.95
2022-10-11T02:55:19.241Z,11.20
2022-10-11T02:57:52.846Z,12.35
2022-10-11T03:00:26.630Z,11.85
2022-10-11T03:05:40.723Z,12.65
2022-10-11T03:08:16.471Z,12.85
2022-10-11T03:10:50.115Z,12.65
2022-10-11T03:13:23.703Z,12.75
2022-10-11T03:16:03.335Z,12.15
2022-10-11T03:18:38.715Z,12.32
2022-10-11T03:21:12.522Z,12.00
2022-10-11T03:26:19.393Z,12.73
2022-10-11T03:28:53.078Z,12.02
2022-10-11T03:31:26.876Z,14.55
2022-10-11T03:36:35.148Z,13.25
2022-10-11T03:39:09.066Z,12.57
2022-10-11T03:41:42.603Z,14.63
2022-10-11T03:44:16.231Z,15.10
2022-10-11T03:46:49.771Z,14.55
2022-10-11T03:49:24.916Z,13.75
2022-10-11T03:51:58.472Z,14.00
2022-10-11T03:54:32.021Z,13.32
2022-10-11T03:57:05.694Z,13.48
2022-10-11T03:59:39.366Z,14.23
2022-10-11T04:02:12.975Z,13.85
2022-10-11T04:04:48.030Z,15.43
2022-10-11T04:07:21.811Z,14.88
2022-10-11T04:12:31.846Z,14.70
2022-10-11T04:15:06.374Z,14.38
2022-10-11T04:17:40.312Z,13.90
2022-10-11T04:20:15.506Z,14.10
2022-10-11T04:22:49.062Z,15.85
2022-10-11T04:25:22.610Z,13.95
2022-10-11T04:27:56.226Z,13.63
2022-10-11T04:30:29.761Z,14.05
2022-10-11T04:33:15.137Z,13.40
2022-10-11T04:35:50.235Z,14.30
2022-10-11T04:38:23.797Z,15.18
2022-10-11T04:40:57.304Z,15.13
2022-10-11T04:43:30.818Z,14.68
2022-10-11T04:46:05.265Z,13.98
2022-10-11T04:48:39.207Z,13.88
2022-10-11T04:51:14.339Z,13.93
2022-10-11T04:53:48.688Z,14.60
2022-10-11T04:56:22.364Z,15.48
2022-10-11T04:58:55.910Z,15.23
2022-10-11T05:01:29.484Z,16.42
2022-10-11T05:04:03.025Z,15.35
2022-10-11T05:06:37.955Z,17.30
2022-10-11T05:09:11.607Z,17.13
2022-10-11T05:14:20.975Z,15.30
2022-10-11T05:16:54.463Z,17.17
2022-10-11T05:19:28.053Z,15.60
2022-10-11T05:22:02.988Z,15.27
2022-10-11T05:24:36.717Z,16.67
2022-10-11T05:29:43.676Z,15.98
2022-10-11T05:32:17.443Z,16.45
2022-10-11T05:37:25.770Z,16.25
2022-10-11T05:39:59.315Z,16.58
2022-10-11T05:42:32.864Z,15.98
2022-10-11T05:45:07.616Z,16.02
2022-10-11T05:47:41.249Z,16.45
2022-10-11T05:50:15.028Z,16.13
2022-10-11T05:55:23.387Z,14.73
2022-10-11T05:57:57.657Z,16.60
2022-10-11T06:00:31.336Z,14.73
2022-10-11T06:05:38.698Z,14.67
2022-10-11T06:11:01.704Z,15.18
2022-10-11T06:13:35.986Z,14.18
2022-10-11T06:16:10.088Z,15.35
2022-10-11T06:18:46.096Z,14.23
2022-10-11T06:21:25.440Z,14.38
2022-10-11T06:24:01.954Z,14.30
2022-10-11T06:26:35.533Z,14.93
2022-10-11T06:29:10.005Z,14.95
2022-10-11T06:31:43.610Z,13.60
2022-10-11T06:36:50.542Z,13.85
2022-10-11T06:39:25.603Z,14.43
2022-10-11T06:41:59.456Z,14.07
2022-10-11T06:47:08.015Z,12.80
2022-10-11T06:49:41.600Z,14.57
2022-10-11T06:52:15.261Z,15.38
2022-10-11T06:54:50.339Z,15.75
2022-10-11T06:57:25.837Z,15.43
2022-10-11T06:59:59.555Z,15.52
2022-10-11T07:05:07.187Z,17.73
2022-10-11T07:07:40.743Z,18.38
2022-10-11T07:12:49.258Z,18.08
2022-10-11T07:15:23.092Z,18.77
2022-10-11T07:17:56.691Z,17.02
2022-10-11T07:20:33.165Z,17.40
2022-10-11T07:23:06.842Z,17.35
2022-10-11T07:28:15.710Z,17.33
2022-10-11T07:30:50.244Z,17.45
2022-10-11T07:33:23.863Z,16.83
2022-10-11T07:41:08.346Z,15.60
2022-10-11T07:43:43.657Z,13.82
2022-10-11T07:46:17.423Z,14.57
2022-10-11T07:51:25.674Z,14.00
2022-10-11T07:54:01.341Z,14.30
2022-10-11T07:56:40.314Z,13.60
2022-10-11T07:59:13.940Z,13.73
2022-10-11T08:04:21.578Z,11.43
2022-10-11T08:06:55.116Z,11.20
2022-10-11T08:09:28.931Z,10.75
2022-10-11T08:12:04.344Z,11.77
2022-10-11T08:14:38.251Z,9.65
2022-10-11T08:17:12.189Z,10.75
2022-10-11T08:19:45.738Z,8.90
2022-10-11T08:22:19.791Z,8.68
2022-10-11T08:24:53.356Z,8.80
2022-10-11T08:30:01.527Z,9.68
2022-10-11T08:35:09.034Z,8.90
2022-10-11T08:37:42.560Z,9.30
2022-10-11T08:42:59.388Z,8.15
2022-10-11T08:45:36.906Z,8.27
2022-10-11T08:48:17.534Z,8.52
2022-10-11T08:50:53.781Z,7.45
2022-10-11T08:53:37.871Z,8.32
2022-10-11T08:56:14.697Z,8.27
2022-10-11T08:58:54.013Z,8.02
2022-10-11T09:01:29.459Z,7.72
2022-10-11T09:04:04.233Z,18.20
2022-10-11T09:06:45.272Z,6.93
2022-10-11T09:09:30.590Z,7.47
2022-10-11T09:12:12.500Z,7.15
2022-10-11T09:15:09.009Z,6.78
2022-10-11T09:18:04.790Z,7.35
2022-10-11T09:20:49.651Z,7.90
2022-10-11T09:23:40.384Z,6.25
2022-10-11T09:26:24.815Z,5.88
2022-10-11T09:29:07.987Z,5.55
2022-10-11T09:31:47.638Z,4.80
2022-10-11T09:34:23.570Z,5.20
2022-10-11T09:37:04.912Z,4.13
2022-10-11T09:39:45.317Z,4.13
2022-10-11T09:42:19.038Z,4.38
2022-10-11T09:44:53.080Z,4.10
2022-10-11T09:47:30.022Z,2.63
2022-10-11T09:50:06.866Z,3.50
2022-10-11T09:52:50.031Z,2.85
2022-10-11T09:55:36.341Z,3.17
2022-10-11T09:58:27.901Z,3.78
2022-10-11T10:01:07.923Z,2.78
2022-10-11T10:03:45.204Z,3.67
2022-10-11T10:06:25.002Z,3.30
2022-10-11T10:09:21.620Z,3.38
2022-10-11T10:11:56.367Z,3.45
2022-10-11T10:14:31.644Z,3.72
2022-10-11T10:17:08.728Z,3.80
2022-10-11T10:19:50.748Z,4.50
2022-10-11T10:22:28.320Z,3.00
2022-10-11T10:25:06.110Z,2.70
2022-10-11T10:27:39.648Z,2.28
2022-10-11T10:30:17.193Z,2.65
2022-10-11T10:32:56.289Z,2.22
2022-10-11T10:35:38.874Z,2.55
2022-10-11T10:38:19.797Z,2.33
2022-10-11T10:40:58.306Z,3.13
2022-10-11T10:43:35.687Z,2.53
2022-10-11T10:46:23.710Z,2.67
2022-10-11T10:49:34.580Z,2.72
2022-10-11T10:52:13.223Z,2.17
2022-10-11T10:54:54.026Z,2.45
2022-10-11T10:57:37.220Z,2.00
2022-10-11T11:00:16.361Z,2.40
2022-10-11T11:02:56.577Z,2.00
2022-10-11T11:05:42.492Z,2.03
2022-10-11T11:08:30.004Z,2.58
2022-10-11T11:11:13.765Z,2.70
2022-10-11T11:13:54.971Z,1.88
2022-10-11T11:16:38.286Z,2.25
2022-10-11T11:19:23.512Z,2.63
2022-10-11T11:22:03.248Z,2.13
2022-10-11T11:24:46.835Z,2.00
2022-10-11T11:27:34.465Z,2.28
2022-10-11T11:30:13.150Z,1.88
2022-10-11T11:32:58.175Z,1.80
2022-10-11T11:35:38.388Z,2.03
2022-10-11T11:38:18.043Z,1.98
2022-10-11T11:40:57.622Z,1.60
2022-10-11T11:43:36.525Z,2.10
2022-10-11T11:46:16.780Z,2.10
2022-10-11T11:48:52.601Z,2.08
2022-10-11T11:51:31.887Z,2.20
2022-10-11T11:54:16.807Z,2.13
2022-10-11T11:56:59.599Z,2.00
2022-10-11T12:02:34.743Z,2.13
2022-10-11T12:05:08.950Z,1.63
2022-10-11T12:07:53.468Z,1.73
2022-10-11T12:10:37.089Z,1.70
2022-10-11T12:13:26.301Z,2.17
2022-10-11T12:16:11.141Z,2.20
2022-10-11T12:21:32.850Z,2.42
2022-10-11T12:24:13.494Z,3.13
2022-10-11T12:26:48.998Z,2.58
2022-10-11T12:29:46.401Z,1.92
2022-10-11T12:32:52.263Z,2.15
2022-10-11T12:36:04.047Z,2.30
2022-10-11T12:38:42.032Z,2.08
2022-10-11T12:41:50.910Z,1.70
2022-10-11T12:44:26.521Z,2.33
2022-10-11T12:47:27.787Z,2.10
2022-10-11T12:50:11.701Z,1.90
2022-10-11T12:52:59.205Z,1.75
2022-10-11T12:55:46.895Z,1.88
2022-10-11T12:58:30.027Z,1.90
2022-10-11T13:01:23.406Z,2.17
2022-10-11T13:04:05.501Z,2.47
2022-10-11T13:06:46.726Z,2.08
2022-10-11T13:09:28.897Z,2.40
2022-10-11T13:12:06.702Z,2.20
2022-10-11T13:14:46.652Z,2.15
2022-10-11T13:17:24.926Z,1.88
2022-10-11T13:20:03.626Z,1.80
2022-10-11T13:22:40.850Z,1.58
2022-10-11T13:25:18.782Z,1.90
2022-10-11T13:27:55.327Z,2.70
2022-10-11T13:30:31.708Z,2.08
2022-10-11T13:33:09.971Z,1.90
2022-10-11T13:35:45.218Z,1.90
2022-10-11T13:38:24.134Z,2.22
2022-10-11T13:41:00.196Z,1.90
2022-10-11T13:43:34.278Z,2.28
2022-10-11T13:46:09.364Z,1.85
2022-10-11T13:48:43.353Z,1.48
2022-10-11T13:51:29.729Z,1.50
2022-10-11T13:54:05.436Z,1.77
2022-10-11T13:56:45.573Z,2.08
2022-10-11T13:59:22.070Z,1.83
2022-10-11T14:02:04.597Z,2.80
2022-10-11T14:04:42.048Z,1.65
2022-10-11T14:07:26.369Z,2.05
2022-10-11T14:10:00.497Z,2.15
2022-10-11T14:12:38.304Z,1.52
2022-10-11T14:15:27.152Z,1.77
2022-10-11T14:18:01.840Z,2.33
2022-10-11T14:20:38.949Z,2.00
2022-10-11T14:23:14.384Z,1.63
2022-10-11T14:25:48.402Z,1.80
2022-10-11T14:28:22.220Z,1.50
2022-10-11T14:30:55.962Z,1.63
2022-10-11T14:33:31.052Z,2.05
2022-10-11T14:36:05.169Z,2.03
2022-10-11T14:38:40.678Z,1.92
2022-10-11T14:41:14.256Z,2.65
2022-10-11T14:43:47.790Z,4.40
2022-10-11T14:48:56.982Z,6.78
2022-10-11T14:51:36.607Z,5.25
2022-10-11T14:54:12.251Z,4.50
2022-10-11T14:56:48.465Z,3.20
2022-10-11T14:59:24.213Z,3.50
2022-10-11T15:01:57.730Z,4.18
2022-10-11T15:07:05.960Z,4.22
2022-10-11T15:09:40.962Z,4.95
2022-10-11T15:12:14.570Z,4.72
2022-10-11T15:17:21.320Z,6.35
2022-10-11T15:22:28.166Z,5.88
2022-10-11T15:27:36.468Z,6.10
2022-10-11T15:32:50.135Z,6.63
2022-10-11T15:35:25.596Z,5.35
2022-10-11T15:38:01.392Z,5.45
2022-10-11T15:40:37.914Z,5.32
2022-10-11T15:43:11.712Z,3.95
2022-10-11T15:45:45.684Z,4.35
2022-10-11T15:48:24.091Z,4.72
2022-10-11T15:50:58.833Z,5.57
2022-10-11T15:53:32.759Z,6.20
2022-10-11T15:56:10.615Z,6.28
2022-10-11T15:58:44.903Z,6.28
2022-10-11T16:01:20.880Z,6.57
2022-10-11T16:03:54.608Z,6.75
2022-10-11T16:09:02.506Z,6.80
2022-10-11T16:11:37.692Z,6.85
2022-10-11T16:14:11.407Z,6.05
2022-10-11T16:19:18.414Z,5.55
2022-10-11T16:24:25.428Z,5.68
2022-10-11T16:27:02.733Z,8.70
2022-10-11T16:29:37.046Z,8.75
2022-10-11T16:32:10.869Z,13.07
2022-10-11T16:34:44.789Z,26.15
2022-10-11T16:37:18.730Z,45.75
2022-10-11T16:39:52.404Z,34.90
2022-10-11T16:45:01.183Z,41.92
2022-10-11T16:50:09.214Z,69.40
2022-10-11T16:52:43.035Z,64.10
2022-10-11T16:55:16.637Z,55.30
2022-10-11T16:57:51.936Z,41.50
2022-10-11T17:00:26.192Z,43.15
2022-10-11T17:03:03.342Z,27.13
2022-10-11T17:05:37.984Z,30.02
2022-10-11T17:08:14.487Z,25.15
2022-10-11T17:13:36.965Z,28.02
2022-10-11T17:16:14.120Z,22.63
2022-10-11T17:18:51.281Z,23.90
2022-10-11T17:21:25.427Z,21.20
2022-10-11T17:23:59.295Z,20.65
2022-10-11T17:26:34.173Z,22.17
2022-10-11T17:29:14.292Z,23.20
2022-10-11T17:31:49.662Z,23.17
2022-10-11T17:34:25.689Z,22.23
2022-10-11T17:36:59.453Z,20.67
2022-10-11T17:42:07.849Z,16.23
2022-10-11T17:44:48.052Z,14.50
2022-10-11T17:47:21.893Z,15.48
2022-10-11T17:49:55.600Z,14.85
2022-10-11T17:52:29.839Z,15.10
2022-10-11T17:55:03.777Z,13.80
2022-10-11T17:57:37.448Z,12.00
2022-10-11T18:02:47.016Z,10.73
2022-10-11T18:05:20.643Z,10.23
2022-10-11T18:07:54.346Z,10.07
2022-10-11T18:13:06.824Z,12.98
2022-10-11T18:15:44.100Z,11.05
2022-10-11T18:18:18.414Z,11.68
2022-10-11T18:20:52.470Z,11.52
2022-10-11T18:23:26.359Z,12.45
2022-10-11T18:28:36.546Z,10.73
2022-10-11T18:31:14.701Z,11.00
2022-10-11T18:33:51.162Z,10.40
2022-10-11T18:36:27.737Z,12.93
2022-10-11T18:39:04.539Z,13.43
2022-10-11T18:41:42.122Z,15.35
2022-10-11T18:44:16.878Z,15.43
2022-10-11T18:46:53.527Z,15.02
2022-10-11T18:49:27.096Z,14.68
2022-10-11T18:52:00.889Z,14.05
2022-10-11T18:57:08.099Z,14.40
2022-10-11T19:02:21.908Z,14.38
2022-10-11T19:04:55.558Z,16.17
2022-10-11T19:07:29.519Z,16.55
2022-10-11T19:10:04.280Z,15.65
2022-10-11T19:12:37.897Z,14.43
2022-10-11T19:15:16.726Z,12.57
2022-10-11T19:17:51.737Z,12.48
2022-10-11T19:20:25.408Z,14.60
2022-10-11T19:22:58.950Z,17.80
2022-10-11T19:25:36.158Z,20.63
2022-10-11T19:28:13.616Z,25.90
2022-10-11T19:30:53.222Z,19.13
2022-10-11T19:33:38.042Z,19.75
2022-10-11T19:36:15.049Z,17.90
2022-10-11T19:38:50.055Z,18.02
2022-10-11T19:41:26.471Z,18.20
2022-10-11T19:44:02.690Z,20.05
2022-10-11T19:46:52.941Z,19.48
2022-10-11T19:49:31.307Z,20.02
2022-10-11T19:52:04.959Z,20.30
2022-10-11T19:54:46.134Z,20.58
2022-10-11T19:59:52.909Z,17.05
2022-10-11T20:02:26.471Z,18.88
2022-10-11T20:05:01.347Z,22.58
2022-10-11T20:07:34.915Z,27.58
2022-10-11T20:10:11.305Z,26.80
2022-10-11T20:12:46.028Z,26.27
2022-10-11T20:15:19.682Z,26.50
2022-10-11T20:17:53.164Z,23.58
2022-10-11T20:20:28.185Z,24.80
2022-10-11T20:23:01.785Z,21.27
2022-10-11T20:25:35.286Z,20.98
2022-10-11T20:28:08.952Z,21.45
2022-10-11T20:30:46.151Z,23.30
2022-10-11T20:33:19.886Z,21.40
2022-10-11T20:36:04.282Z,21.40
2022-10-11T20:38:40.559Z,27.17
2022-10-11T20:41:18.706Z,24.27
2022-10-11T20:43:54.025Z,23.33
2022-10-11T20:46:32.157Z,23.75
2022-10-11T20:49:07.576Z,22.23
2022-10-11T20:51:46.629Z,25.23
2022-10-11T20:54:21.346Z,23.65
2022-10-11T20:56:57.718Z,22.60
2022-10-11T20:59:39.247Z,24.75
2022-10-11T21:02:19.095Z,23.77
2022-10-11T21:04:52.971Z,28.23
2022-10-11T21:10:02.581Z,25.55
2022-10-11T21:12:38.454Z,21.50
2022-10-11T21:15:15.041Z,23.13
2022-10-11T21:17:51.885Z,20.40
2022-10-11T21:20:28.548Z,21.73
2022-10-11T21:23:04.596Z,23.20
2022-10-11T21:25:39.386Z,22.75
2022-10-11T21:28:13.157Z,24.52
2022-10-11T21:33:27.187Z,25.15
2022-10-11T21:36:00.837Z,22.63
2022-10-11T21:38:37.987Z,23.23
2022-10-11T21:41:16.441Z,22.70
2022-10-11T21:43:51.062Z,23.27
2022-10-11T21:46:47.672Z,21.75
2022-10-11T21:49:21.304Z,21.73
2022-10-11T21:51:55.545Z,22.90
2022-10-11T21:54:31.162Z,20.40
2022-10-11T21:57:07.942Z,21.92
2022-10-11T21:59:43.737Z,22.92
2022-10-11T22:02:17.738Z,22.52
2022-10-11T22:07:27.553Z,21.67
2022-10-11T22:10:05.751Z,24.15
2022-10-11T22:12:39.883Z,21.73
2022-10-11T22:15:13.836Z,21.00
2022-10-11T22:17:50.186Z,20.77
2022-10-11T22:20:24.281Z,20.65
2022-10-11T22:22:58.261Z,21.92
2022-10-11T22:28:14.204Z,18.35
2022-10-11T22:30:48.662Z,19.42
2022-10-11T22:33:22.196Z,18.50
2022-10-11T22:35:57.381Z,19.30
2022-10-11T22:38:31.367Z,19.02
2022-10-11T22:41:11.443Z,16.88
2022-10-11T22:43:46.897Z,18.00
2022-10-11T22:46:25.501Z,16.48
2022-10-11T22:49:00.869Z,30.33
2022-10-11T22:51:34.503Z,26.30
2022-10-11T22:54:08.108Z,37.67
2022-10-11T22:56:43.166Z,37.83
2022-10-11T22:59:16.691Z,37.80
2022-10-11T23:01:50.229Z,32.72
2022-10-11T23:04:23.814Z,28.10
2022-10-11T23:07:01.196Z,26.52
2022-10-11T23:09:37.431Z,26.00
2022-10-11T23:12:12.393Z,25.65
2022-10-11T23:14:45.979Z,26.50
2022-10-11T23:17:19.609Z,25.50
2022-10-11T23:19:53.582Z,25.98
2022-10-11T23:22:27.183Z,24.58
2022-10-11T23:25:00.746Z,22.67
2022-10-11T23:27:36.024Z,24.50
2022-10-11T23:30:11.431Z,24.35
2022-10-11T23:32:45.040Z,24.25
2022-10-11T23:35:20.107Z,24.55
2022-10-11T23:37:54.964Z,22.98
2022-10-11T23:40:28.471Z,21.85
2022-10-11T23:43:03.428Z,24.77
2022-10-11T23:45:36.876Z,22.58
2022-10-11T23:48:10.367Z,20.75
2022-10-11T23:50:44.074Z,21.77
2022-10-11T23:53:17.624Z,18.42
2022-10-11T23:55:51.129Z,17.77
2022-10-11T23:58:26.091Z,19.85
